Time;durP1;ratioP1;P1;durP2;ratioP2;P2;SDS_P1;SDS_P2;PMS_P1;PMS_P2;Temp;Humidity;BMP_temperature;BMP_pressure;BME280_temperature;BME280_humidity;BME280_pressure;Samples;Min_cycle;Max_cycle;Signal;HPM_P1;HPM_P2
2022/03/24 00:01:47;;;;;;;;;;;10.60;90.30;;;;;;4974101;28;20419;-88
2022/03/24 00:04:13;;;;;;;;;;;10.60;90.60;;;;;;4975878;28;19910;-88
2022/03/24 00:06:39;;;;;;;;;;;10.60;90.00;;;;;;4974794;28;19953;-88
2022/03/24 00:09:05;;;;;;;;;;;10.50;90.00;;;;;;4975441;28;20000;-88
2022/03/24 00:11:30;;;;;;;;;;;10.50;90.50;;;;;;4974996;28;19910;-87
2022/03/24 00:13:56;;;;;;;;;;;10.50;90.20;;;;;;4975789;28;19917;-88
2022/03/24 00:16:22;;;;;;;;;;;10.40;90.80;;;;;;4973669;28;19929;-89
2022/03/24 00:18:47;;;;;;;;;;;10.40;90.80;;;;;;4975195;28;19956;-88
2022/03/24 00:21:13;;;;;;;;;;;10.30;90.30;;;;;;4977513;28;19912;-87
2022/03/24 00:23:39;;;;;;;;;;;10.30;90.50;;;;;;4977298;28;19938;-88
2022/03/24 00:26:04;;;;;;;;;;;10.30;90.40;;;;;;4957887;28;20111;-88
2022/03/24 00:28:33;;;;;;;;;;;10.30;90.90;;;;;;4975373;28;19916;-88
2022/03/24 00:30:59;;;;;;;;;;;10.20;90.60;;;;;;4977289;28;19949;-88
2022/03/24 00:33:25;;;;;;;;;;;10.20;91.00;;;;;;4975001;28;20425;-88
2022/03/24 00:35:51;;;;;;;;;;;10.20;90.90;;;;;;4975017;28;20131;-88
2022/03/24 00:38:16;;;;;;;;;;;10.10;91.50;;;;;;4979550;28;19937;-88
2022/03/24 00:40:42;;;;;;;;;;;10.10;91.40;;;;;;4975481;28;19957;-88
2022/03/24 00:43:08;;;;;;;;;;;10.00;91.30;;;;;;4975299;28;19910;-88
2022/03/24 00:45:34;;;;;;;;;;;10.00;91.20;;;;;;4974654;28;20260;-88
2022/03/24 00:47:59;;;;;;;;;;;10.00;90.90;;;;;;4957895;28;19960;-88
2022/03/24 00:50:25;;;;;;;;;;;10.00;91.00;;;;;;4974806;28;19914;-89
2022/03/24 00:52:51;;;;;;;;;;;10.00;91.30;;;;;;4974000;28;19926;-88
2022/03/24 00:55:18;;;;;;;;;;;9.90;91.50;;;;;;4974785;28;19911;-88
2022/03/24 00:57:44;;;;;;;;;;;9.90;91.90;;;;;;4974637;28;20114;-88
2022/03/24 01:00:15;;;;;;;;;;;9.80;91.20;;;;;;4975713;28;19918;-88
2022/03/24 01:02:41;;;;;;;;;;;9.80;90.90;;;;;;4973512;28;20013;-88
2022/03/24 01:05:07;;;;;;;;;;;9.80;91.10;;;;;;4977141;28;19918;-88
2022/03/24 01:07:33;;;;;;;;;;;9.80;91.00;;;;;;4959597;28;19917;-89
2022/03/24 01:09:59;;;;;;;;;;;9.80;91.30;;;;;;4976789;28;20017;-88
2022/03/24 01:12:24;;;;;;;;;;;9.80;91.40;;;;;;4975708;28;20386;-88
2022/03/24 01:14:50;;;;;;;;;;;9.80;91.10;;;;;;4973209;28;20314;-88
2022/03/24 01:17:16;;;;;;;;;;;9.80;90.70;;;;;;4974030;28;20450;-88
2022/03/24 01:19:42;;;;;;;;;;;9.80;90.80;;;;;;4974694;28;19913;-87
2022/03/24 01:22:08;;;;;;;;;;;9.90;91.20;;;;;;4974140;28;19933;-88
2022/03/24 01:24:37;;;;;;;;;;;9.90;91.20;;;;;;4974476;28;19914;-88
2022/03/24 01:27:03;;;;;;;;;;;9.90;91.40;;;;;;4974491;28;19910;-88
2022/03/24 01:29:28;;;;;;;;;;;9.90;90.70;;;;;;4976122;28;19910;-88
2022/03/24 01:31:54;;;;;;;;;;;9.90;90.80;;;;;;4974031;28;19918;-88
2022/03/24 01:34:19;;;;;;;;;;;9.90;90.80;;;;;;4974496;28;19910;-88
2022/03/24 01:36:45;;;;;;;;;;;9.90;90.20;;;;;;4974136;28;19910;-88
2022/03/24 01:39:10;;;;;;;;;;;9.90;90.80;;;;;;4973687;28;19910;-88
2022/03/24 01:41:38;;;;;;;;;;;9.90;90.30;;;;;;4974271;28;19910;-88
2022/03/24 01:44:09;;;;;;;;;;;9.90;89.90;;;;;;4973048;28;20125;-88
2022/03/24 01:46:35;;;;;;;;;;;10.00;90.50;;;;;;4973922;28;19942;-88
2022/03/24 01:49:00;;;;;;;;;;;10.00;89.90;;;;;;4973659;28;19926;-88
2022/03/24 01:51:26;;;;;;;;;;;9.90;90.60;;;;;;4956323;28;19910;-88
2022/03/24 01:53:53;;;;;;;;;;;9.90;90.70;;;;;;4956471;28;19984;-88
2022/03/24 01:56:19;;;;;;;;;;;9.90;91.00;;;;;;4957001;28;19910;-88
2022/03/24 01:58:44;;;;;;;;;;;9.90;90.90;;;;;;4973042;28;19911;-88
2022/03/24 02:01:25;;;;;;;;;;;9.90;90.50;;;;;;4973755;28;19906;-88
2022/03/24 02:03:51;;;;;;;;;;;9.90;90.70;;;;;;4972954;28;19917;-88
2022/03/24 02:06:17;;;;;;;;;;;9.80;90.50;;;;;;4955894;28;19910;-88
2022/03/24 02:08:42;;;;;;;;;;;9.70;91.00;;;;;;4973731;28;19910;-88
2022/03/24 02:11:08;;;;;;;;;;;9.70;91.50;;;;;;4974368;28;19910;-88
2022/03/24 02:13:35;;;;;;;;;;;9.60;91.10;;;;;;4973419;28;19918;-88
2022/03/24 02:16:01;;;;;;;;;;;9.60;91.50;;;;;;4973418;28;19914;-88
2022/03/24 02:18:27;;;;;;;;;;;9.60;91.10;;;;;;4973049;28;19914;-88
2022/03/24 02:20:52;;;;;;;;;;;9.60;90.40;;;;;;4972991;28;19969;-88
2022/03/24 02:23:18;;;;;;;;;;;9.50;91.00;;;;;;4972771;28;19917;-88
2022/03/24 02:25:44;;;;;;;;;;;9.40;91.30;;;;;;4971674;28;19910;-88
2022/03/24 02:28:12;;;;;;;;;;;9.40;91.60;;;;;;4973051;28;19993;-88
2022/03/24 02:30:37;;;;;;;;;;;9.30;91.70;;;;;;4973161;28;20019;-89
2022/03/24 02:33:03;;;;;;;;;;;9.20;90.80;;;;;;4972883;28;20443;-88
2022/03/24 02:35:28;;;;;;;;;;;9.30;91.00;;;;;;4973441;28;19906;-88
2022/03/24 02:37:54;;;;;;;;;;;9.30;90.50;;;;;;4971355;28;19922;-88
2022/03/24 02:40:19;;;;;;;;;;;9.30;90.10;;;;;;4972654;28;19914;-88
2022/03/24 02:42:46;;;;;;;;;;;9.40;90.60;;;;;;4971189;28;19914;-88
2022/03/24 02:45:11;;;;;;;;;;;9.40;89.80;;;;;;4972573;28;19914;-88
2022/03/24 02:47:37;;;;;;;;;;;9.40;89.80;;;;;;4972616;28;19910;-88
2022/03/24 02:50:04;;;;;;;;;;;9.40;89.80;;;;;;4971847;28;19910;-88
2022/03/24 02:52:29;;;;;;;;;;;9.40;90.10;;;;;;4972104;28;19940;-89
2022/03/24 02:54:55;;;;;;;;;;;9.40;90.40;;;;;;4972452;28;20375;-88
2022/03/24 02:57:21;;;;;;;;;;;9.40;89.90;;;;;;4972941;28;20311;-88
2022/03/24 02:59:47;;;;;;;;;;;9.40;89.10;;;;;;4972281;28;20005;-88
2022/03/24 03:02:14;;;;;;;;;;;9.30;90.70;;;;;;4971159;28;20041;-88
2022/03/24 03:04:40;;;;;;;;;;;9.30;90.10;;;;;;4972903;28;19910;-88
2022/03/24 03:07:06;;;;;;;;;;;9.30;90.10;;;;;;4972299;28;20286;-88
2022/03/24 03:09:32;;;;;;;;;;;9.20;90.00;;;;;;4972146;28;19914;-88
2022/03/24 03:11:58;;;;;;;;;;;9.20;90.60;;;;;;4971557;28;19918;-88
2022/03/24 03:14:24;;;;;;;;;;;9.20;90.00;;;;;;4971232;28;19910;-88
2022/03/24 03:16:49;;;;;;;;;;;9.10;89.20;;;;;;4972750;28;19922;-88
2022/03/24 03:19:17;;;;;;;;;;;9.10;89.00;;;;;;4972764;28;19920;-88
2022/03/24 03:21:43;;;;;;;;;;;9.10;88.90;;;;;;4972054;28;19917;-88
2022/03/24 03:24:10;;;;;;;;;;;9.10;88.60;;;;;;4954491;28;20001;-87
2022/03/24 03:26:36;;;;;;;;;;;9.10;87.10;;;;;;4971946;28;20532;-88
2022/03/24 03:29:02;;;;;;;;;;;9.10;87.60;;;;;;4972212;28;20001;-88
2022/03/24 03:31:28;;;;;;;;;;;9.10;87.30;;;;;;4954341;28;19910;-88
2022/03/24 03:33:54;;;;;;;;;;;9.10;87.80;;;;;;4970454;28;20405;-88
2022/03/24 03:36:20;;;;;;;;;;;9.00;89.10;;;;;;4972507;28;19917;-88
2022/03/24 03:38:46;;;;;;;;;;;9.00;87.40;;;;;;4954489;28;19915;-88
2022/03/24 03:41:13;;;;;;;;;;;9.10;87.20;;;;;;4972009;28;20303;-88
2022/03/24 03:43:38;;;;;;;;;;;9.10;87.00;;;;;;4970679;28;19930;-88
2022/03/24 03:46:04;;;;;;;;;;;9.10;85.70;;;;;;4971742;28;19914;-88
2022/03/24 03:48:30;;;;;;;;;;;9.00;86.80;;;;;;4971990;28;19952;-88
2022/03/24 03:50:56;;;;;;;;;;;9.00;85.10;;;;;;4971840;28;20386;-88
2022/03/24 03:53:23;;;;;;;;;;;9.00;85.40;;;;;;4971673;28;20267;-88
2022/03/24 03:55:49;;;;;;;;;;;9.10;86.00;;;;;;4973354;28;19945;-88
2022/03/24 03:58:15;;;;;;;;;;;9.10;85.60;;;;;;4970636;28;19911;-88
2022/03/24 04:00:52;;;;;;;;;;;9.10;86.00;;;;;;4971595;28;19921;-88
2022/03/24 04:03:29;;;;;;;;;;;9.10;84.40;;;;;;4971469;28;19949;-88
2022/03/24 04:05:55;;;;;;;;;;;9.10;85.00;;;;;;4971424;28;20425;-88
2022/03/24 04:08:21;;;;;;;;;;;9.10;84.70;;;;;;4973632;28;20018;-88
2022/03/24 04:10:50;;;;;;;;;;;9.10;84.10;;;;;;4971736;28;19953;-88
2022/03/24 04:13:19;;;;;;;;;;;9.00;84.30;;;;;;4970320;28;20463;-87
2022/03/24 04:15:45;;;;;;;;;;;9.00;85.50;;;;;;4973723;28;19956;-88
2022/03/24 04:18:11;;;;;;;;;;;9.00;84.00;;;;;;4970627;28;20086;-88
2022/03/24 04:20:38;;;;;;;;;;;9.00;86.50;;;;;;4971350;28;20413;-88
2022/03/24 04:23:05;;;;;;;;;;;8.90;86.30;;;;;;4971367;28;20278;-89
2022/03/24 04:25:31;;;;;;;;;;;8.90;86.70;;;;;;4971366;28;19914;-88
2022/03/24 04:27:57;;;;;;;;;;;8.80;88.60;;;;;;4971347;28;19917;-87
2022/03/24 04:30:23;;;;;;;;;;;8.70;87.00;;;;;;4971453;28;19910;-88
2022/03/24 04:32:49;;;;;;;;;;;8.70;88.90;;;;;;4972087;28;20004;-88
2022/03/24 04:35:15;;;;;;;;;;;8.60;87.80;;;;;;4971807;28;19921;-88
2022/03/24 04:37:42;;;;;;;;;;;8.50;88.80;;;;;;4971346;28;19914;-88
2022/03/24 04:40:10;;;;;;;;;;;8.40;87.80;;;;;;4971274;28;20279;-88
2022/03/24 04:42:36;;;;;;;;;;;8.40;87.70;;;;;;4970917;28;19957;-88
2022/03/24 04:45:02;;;;;;;;;;;8.40;87.50;;;;;;4971101;28;19910;-88
2022/03/24 04:47:28;;;;;;;;;;;8.30;88.00;;;;;;4971368;28;19940;-88
2022/03/24 04:49:53;;;;;;;;;;;8.20;89.70;;;;;;4975816;28;19910;-88
2022/03/24 04:52:19;;;;;;;;;;;8.20;88.40;;;;;;4976298;28;19914;-88
2022/03/24 04:54:45;;;;;;;;;;;8.10;89.50;;;;;;4977185;28;20374;-88
2022/03/24 04:57:11;;;;;;;;;;;8.10;89.70;;;;;;4976424;28;19964;-88
2022/03/24 04:59:37;;;;;;;;;;;8.00;90.50;;;;;;4956984;28;19914;-88
2022/03/24 05:02:02;;;;;;;;;;;7.90;90.20;;;;;;4974942;28;20187;-88
2022/03/24 05:04:28;;;;;;;;;;;7.90;90.70;;;;;;4957545;28;20009;-88
2022/03/24 05:06:54;;;;;;;;;;;7.90;89.90;;;;;;4974604;28;19910;-88
2022/03/24 05:09:19;;;;;;;;;;;7.80;90.50;;;;;;4959963;28;20146;-88
2022/03/24 05:11:45;;;;;;;;;;;7.80;90.70;;;;;;4957063;28;19910;-88
2022/03/24 05:14:10;;;;;;;;;;;7.70;90.70;;;;;;4977534;28;20323;-88
2022/03/24 05:16:36;;;;;;;;;;;7.70;90.60;;;;;;4948227;28;20296;-88
2022/03/24 05:19:03;;;;;;;;;;;7.60;90.40;;;;;;4935647;29;19914;-88
2022/03/24 05:21:29;;;;;;;;;;;7.50;91.00;;;;;;4955691;29;19911;-88
2022/03/24 05:23:54;;;;;;;;;;;7.50;91.70;;;;;;4950398;29;19917;-88
2022/03/24 05:26:24;;;;;;;;;;;7.60;91.00;;;;;;4938413;29;20319;-88
2022/03/24 05:28:52;;;;;;;;;;;7.50;90.90;;;;;;4935437;29;19911;-88
2022/03/24 05:31:18;;;;;;;;;;;7.50;90.20;;;;;;4937573;29;20387;-88
2022/03/24 05:33:44;;;;;;;;;;;7.60;90.80;;;;;;4935438;29;19919;-88
2022/03/24 05:36:10;;;;;;;;;;;7.60;91.00;;;;;;4940401;29;19911;-88
2022/03/24 05:38:36;;;;;;;;;;;7.70;90.60;;;;;;4935576;29;20414;-88
2022/03/24 05:41:02;;;;;;;;;;;7.70;90.40;;;;;;4933900;29;20372;-89
2022/03/24 05:43:28;;;;;;;;;;;7.70;90.70;;;;;;4934214;29;19911;-88
2022/03/24 05:45:54;;;;;;;;;;;7.80;90.90;;;;;;4935269;29;20293;-89
2022/03/24 05:48:19;;;;;;;;;;;7.80;90.70;;;;;;4939169;29;19913;-88
2022/03/24 05:50:45;;;;;;;;;;;7.70;90.20;;;;;;4935738;29;20407;-89
2022/03/24 05:53:10;;;;;;;;;;;7.70;90.00;;;;;;4935451;29;19919;-88
2022/03/24 05:55:37;;;;;;;;;;;7.80;90.20;;;;;;4935760;29;19911;-88
2022/03/24 05:58:04;;;;;;;;;;;7.80;90.20;;;;;;4936652;29;19933;-88
2022/03/24 06:00:29;;;;;;;;;;;7.70;90.50;;;;;;4936358;29;19966;-88
2022/03/24 06:02:55;;;;;;;;;;;7.70;90.20;;;;;;4933055;29;19911;-88
2022/03/24 06:05:22;;;;;;;;;;;7.70;89.10;;;;;;4935207;29;19919;-88
2022/03/24 06:07:48;;;;;;;;;;;7.70;89.80;;;;;;4936875;29;19918;-88
2022/03/24 06:10:13;;;;;;;;;;;7.70;88.80;;;;;;4941479;29;19910;-88
2022/03/24 06:12:39;;;;;;;;;;;7.80;88.70;;;;;;4932983;29;19918;-88
2022/03/24 06:15:05;;;;;;;;;;;7.80;89.40;;;;;;4935980;29;19911;-89
2022/03/24 06:17:31;;;;;;;;;;;7.80;90.10;;;;;;4963660;28;19930;-88
2022/03/24 06:19:57;;;;;;;;;;;7.80;90.10;;;;;;4973406;28;20430;-88
2022/03/24 07:52:05;;;;;;;;;;;10.10;82.00;;;;;;5874582;23;20724;-93
2022/03/24 07:54:55;;;;;;;;;;;10.20;81.80;;;;;;4983482;28;19922;-92
2022/03/24 07:57:25;;;;;;;;;;;10.20;81.70;;;;;;4967458;28;19899;-92
2022/03/24 07:59:54;;;;;;;;;;;10.30;82.40;;;;;;4984644;28;19910;-92
2022/03/24 08:02:21;;;;;;;;;;;10.40;83.10;;;;;;4982881;28;20025;-93
2022/03/24 08:04:47;;;;;;;;;;;10.50;81.10;;;;;;4982996;28;19922;-93
2022/03/24 08:07:32;;;;;;;;;;;10.50;81.00;;;;;;4983801;28;19898;-92
2022/03/24 08:10:01;;;;;;;;;;;10.60;80.90;;;;;;4984850;28;19920;-92
2022/03/24 08:12:27;;;;;;;;;;;10.70;80.00;;;;;;4973487;28;19915;-94
2022/03/24 08:14:55;;;;;;;;;;;10.80;80.40;;;;;;4971642;28;19917;-93
2022/03/24 08:17:20;;;;;;;;;;;10.90;79.90;;;;;;4978071;28;19914;-93
2022/03/24 08:20:04;;;;;;;;;;;11.00;80.40;;;;;;4963719;28;20033;-92
2022/03/24 08:22:52;;;;;;;;;;;11.10;80.00;;;;;;4979608;28;19914;-93
2022/03/24 08:28:30;;;;;;;;;;;11.30;78.50;;;;;;4962046;28;20389;-93
2022/03/24 08:31:16;;;;;;;;;;;11.30;78.00;;;;;;4990991;28;19970;-96
2022/03/24 08:33:41;;;;;;;;;;;11.40;77.90;;;;;;4987912;28;20044;-93
2022/03/24 08:36:22;;;;;;;;;;;11.40;79.40;;;;;;4986756;28;19965;-93
2022/03/24 08:38:50;;;;;;;;;;;11.50;80.10;;;;;;4983904;28;20279;-92
2022/03/24 08:41:26;;;;;;;;;;;11.60;80.80;;;;;;4990900;28;20119;-94
2022/03/24 08:43:54;;;;;;;;;;;11.80;79.20;;;;;;4982720;28;20025;-95
2022/03/24 08:46:24;;;;;;;;;;;11.80;78.60;;;;;;4975704;28;19922;-95
2022/03/24 08:48:56;;;;;;;;;;;11.80;78.70;;;;;;4974987;28;19933;-92
2022/03/24 08:51:22;;;;;;;;;;;11.80;79.70;;;;;;4976608;28;19930;-81
2022/03/24 08:53:51;;;;;;;;;;;12.00;80.90;;;;;;4978659;28;20306;-82
2022/03/24 08:56:17;;;;;;;;;;;12.10;81.20;;;;;;4977583;28;20013;-83
2022/03/24 08:58:43;;;;;;;;;;;12.20;79.10;;;;;;4974033;28;19993;-82
2022/03/24 09:01:10;;;;;;;;;;;12.20;79.60;;;;;;4976872;28;20126;-83
2022/03/24 09:03:36;;;;;;;;;;;12.30;77.90;;;;;;4978469;28;19922;-88
2022/03/24 09:06:02;;;;;;;;;;;12.50;79.90;;;;;;4956649;28;19918;-88
2022/03/24 09:08:27;;;;;;;;;;;12.60;78.00;;;;;;4977656;28;19906;-88
2022/03/24 09:10:53;;;;;;;;;;;12.70;74.90;;;;;;4974966;28;19910;-87
2022/03/24 09:13:18;;;;;;;;;;;12.80;77.50;;;;;;4973948;28;19985;-88
2022/03/24 09:15:45;;;;;;;;;;;12.80;76.40;;;;;;4974500;28;19957;-89
2022/03/24 09:18:11;;;;;;;;;;;12.80;72.50;;;;;;4973920;28;19911;-87
2022/03/24 09:20:37;;;;;;;;;;;12.90;74.60;;;;;;4973750;28;20482;-89
2022/03/24 09:23:02;;;;;;;;;;;12.90;73.80;;;;;;4956084;28;20053;-87
2022/03/24 09:25:28;;;;;;;;;;;12.90;72.70;;;;;;4973075;28;19921;-86
2022/03/24 09:27:54;;;;;;;;;;;13.00;73.40;;;;;;4972075;28;19956;-86
2022/03/24 09:30:20;;;;;;;;;;;13.10;73.90;;;;;;4974174;28;19917;-87
2022/03/24 09:32:46;;;;;;;;;;;13.20;76.90;;;;;;4973312;28;19925;-86
2022/03/24 09:35:12;;;;;;;;;;;13.40;75.30;;;;;;4973233;28;20009;-86
2022/03/24 09:37:38;;;;;;;;;;;13.50;75.70;;;;;;4957347;28;19949;-87
2022/03/24 09:40:05;;;;;;;;;;;13.60;73.20;;;;;;4972948;28;19918;-86
2022/03/24 09:42:31;;;;;;;;;;;13.60;71.40;;;;;;4973465;28;20359;-87
2022/03/24 09:44:57;;;;;;;;;;;13.70;75.30;;;;;;4972839;28;19910;-86
2022/03/24 09:47:26;;;;;;;;;;;13.80;75.90;;;;;;4973030;28;19957;-86
2022/03/24 09:49:52;;;;;;;;;;;13.90;75.60;;;;;;4973331;28;19933;-87
2022/03/24 09:52:17;;;;;;;;;;;14.10;74.70;;;;;;4972720;28;20366;-86
2022/03/24 09:54:45;;;;;;;;;;;14.20;75.10;;;;;;4973373;28;19953;-87
2022/03/24 09:57:12;;;;;;;;;;;14.20;75.00;;;;;;4973197;28;19961;-87
2022/03/24 09:59:37;;;;;;;;;;;14.30;75.20;;;;;;4973295;28;19916;-86
2022/03/24 10:02:04;;;;;;;;;;;14.40;72.90;;;;;;4973440;28;20013;-87
2022/03/24 10:04:48;;;;;;;;;;;14.50;73.00;;;;;;4973430;28;19921;-87
2022/03/24 10:07:14;;;;;;;;;;;14.50;71.80;;;;;;4972922;28;20442;-87
2022/03/24 10:09:41;;;;;;;;;;;14.50;71.60;;;;;;4972556;28;19996;-87
2022/03/24 10:12:07;;;;;;;;;;;14.50;72.20;;;;;;4973148;28;19910;-87
2022/03/24 10:14:33;;;;;;;;;;;14.70;73.50;;;;;;4972934;28;19917;-87
2022/03/24 10:17:05;;;;;;;;;;;14.80;70.50;;;;;;4956074;28;19917;-88
2022/03/24 10:19:31;;;;;;;;;;;14.80;71.50;;;;;;4953816;29;19918;-81
2022/03/24 10:21:56;;;;;;;;;;;14.90;68.40;;;;;;4953173;29;19965;-87
2022/03/24 10:24:22;;;;;;;;;;;14.90;69.50;;;;;;4953429;29;19914;-88
2022/03/24 10:27:00;;;;;;;;;;;14.90;72.10;;;;;;4953115;29;20221;-88
2022/03/24 10:29:26;;;;;;;;;;;15.10;69.80;;;;;;4953609;29;19910;-88
2022/03/24 10:31:52;;;;;;;;;;;15.20;72.30;;;;;;4954226;29;20338;-87
2022/03/24 10:34:26;;;;;;;;;;;15.30;71.10;;;;;;4953779;29;19910;-87
2022/03/24 10:36:52;;;;;;;;;;;15.40;70.60;;;;;;4954802;29;19920;-88
2022/03/24 10:39:23;;;;;;;;;;;15.50;68.40;;;;;;4935561;29;19993;-88
2022/03/24 10:41:49;;;;;;;;;;;15.60;68.40;;;;;;4952111;29;19949;-88
2022/03/24 10:44:14;;;;;;;;;;;15.70;68.60;;;;;;4952433;28;19946;-88
2022/03/24 10:46:42;;;;;;;;;;;15.70;66.40;;;;;;4951349;28;19922;-87
2022/03/24 10:49:24;;;;;;;;;;;15.80;68.60;;;;;;4952737;29;19965;-87
2022/03/24 10:51:51;;;;;;;;;;;16.00;67.00;;;;;;4952874;29;19911;-88
2022/03/24 10:54:35;;;;;;;;;;;16.10;66.40;;;;;;4953536;29;19927;-88
2022/03/24 10:57:06;;;;;;;;;;;16.20;66.70;;;;;;4952877;29;19914;-88
2022/03/24 10:59:33;;;;;;;;;;;16.30;66.50;;;;;;4952543;29;19911;-88
2022/03/24 11:01:59;;;;;;;;;;;16.40;67.40;;;;;;4935349;29;19911;-88
2022/03/24 11:04:25;;;;;;;;;;;16.40;65.20;;;;;;4952775;29;20363;-88
2022/03/24 11:06:51;;;;;;;;;;;16.40;65.40;;;;;;4952644;29;19911;-88
2022/03/24 11:09:20;;;;;;;;;;;16.40;64.90;;;;;;4952530;29;20393;-87
2022/03/24 11:11:46;;;;;;;;;;;16.60;65.00;;;;;;4952491;29;20162;-88
2022/03/24 11:14:12;;;;;;;;;;;16.70;66.70;;;;;;4952446;29;20185;-87
2022/03/24 11:16:38;;;;;;;;;;;16.80;67.30;;;;;;4952492;29;20001;-88
2022/03/24 11:19:12;;;;;;;;;;;16.90;66.20;;;;;;4935146;29;20390;-86
2022/03/24 11:21:41;;;;;;;;;;;17.10;65.70;;;;;;4939004;28;19910;-87
2022/03/24 11:24:06;;;;;;;;;;;17.10;65.90;;;;;;4971335;28;20001;-86
2022/03/24 11:26:34;;;;;;;;;;;17.20;65.30;;;;;;4971562;28;20030;-86
2022/03/24 11:28:59;;;;;;;;;;;17.20;64.70;;;;;;4971254;28;19910;-86
2022/03/24 11:31:28;;;;;;;;;;;17.30;65.10;;;;;;4953886;28;20433;-86
2022/03/24 11:33:54;;;;;;;;;;;17.40;65.80;;;;;;4971836;28;20092;-86
2022/03/24 11:36:21;;;;;;;;;;;17.40;65.90;;;;;;4960118;28;20077;-86
2022/03/24 11:38:48;;;;;;;;;;;17.50;65.10;;;;;;4952126;29;19910;-87
2022/03/24 11:41:20;;;;;;;;;;;17.70;66.70;;;;;;4950616;29;20006;-86
2022/03/24 11:43:49;;;;;;;;;;;17.80;66.70;;;;;;4951904;29;19911;-86
2022/03/24 11:46:20;;;;;;;;;;;17.90;65.40;;;;;;4957859;28;20005;-86
2022/03/24 11:48:45;;;;;;;;;;;18.10;67.70;;;;;;4972145;28;19910;-83
2022/03/24 11:51:19;;;;;;;;;;;18.10;68.90;;;;;;4971767;28;20426;-83
2022/03/24 11:53:58;;;;;;;;;;;18.20;65.50;;;;;;4971160;28;19926;-83
2022/03/24 11:56:24;;;;;;;;;;;18.20;66.00;;;;;;4971059;28;20454;-82
2022/03/24 11:58:52;;;;;;;;;;;18.40;65.80;;;;;;4975497;28;19996;-82
2022/03/24 12:01:18;;;;;;;;;;;18.40;65.90;;;;;;4975177;28;19910;-82
2022/03/24 12:03:44;;;;;;;;;;;18.40;65.90;;;;;;4975628;28;20279;-83
2022/03/24 12:06:11;;;;;;;;;;;18.50;65.40;;;;;;4958308;28;19957;-82
2022/03/24 12:08:49;;;;;;;;;;;18.60;64.50;;;;;;4975731;28;19910;-82
2022/03/24 12:11:30;;;;;;;;;;;18.80;64.40;;;;;;4975333;28;20029;-83
2022/03/24 12:13:56;;;;;;;;;;;18.90;63.40;;;;;;4974450;28;19914;-84
2022/03/24 12:16:23;;;;;;;;;;;19.00;62.00;;;;;;4957393;28;20367;-85
2022/03/24 12:18:49;;;;;;;;;;;19.00;62.20;;;;;;4974691;28;20004;-85
2022/03/24 12:21:21;;;;;;;;;;;19.20;60.50;;;;;;4975012;28;20009;-85
2022/03/24 12:24:08;;;;;;;;;;;19.20;61.30;;;;;;4974643;28;20341;-85
2022/03/24 12:26:37;;;;;;;;;;;19.40;61.50;;;;;;4974870;28;19968;-85
2022/03/24 12:29:12;;;;;;;;;;;19.40;60.10;;;;;;4974615;28;19917;-85
2022/03/24 12:31:56;;;;;;;;;;;19.50;61.20;;;;;;4974879;28;19965;-85
2022/03/24 12:34:23;;;;;;;;;;;19.70;59.70;;;;;;4974266;28;19918;-85
2022/03/24 12:36:48;;;;;;;;;;;19.80;58.90;;;;;;4974436;28;20359;-85
2022/03/24 12:39:33;;;;;;;;;;;19.90;60.30;;;;;;4957350;28;19954;-85
2022/03/24 12:42:06;;;;;;;;;;;20.00;60.60;;;;;;4974016;28;19917;-85
2022/03/24 12:45:01;;;;;;;;;;;20.10;59.20;;;;;;4975011;28;20009;-85
2022/03/24 12:47:37;;;;;;;;;;;20.10;59.20;;;;;;4961366;28;19950;-85
2022/03/24 12:50:15;;;;;;;;;;;20.20;60.00;;;;;;4975385;28;19910;-85
2022/03/24 12:52:49;;;;;;;;;;;20.10;59.60;;;;;;4974135;28;19965;-85
2022/03/24 12:55:19;;;;;;;;;;;20.10;59.70;;;;;;4974223;28;19977;-85
2022/03/24 12:57:53;;;;;;;;;;;20.10;59.40;;;;;;4974313;28;20009;-84
2022/03/24 13:00:18;;;;;;;;;;;20.20;60.30;;;;;;4974104;28;20415;-84
2022/03/24 13:02:44;;;;;;;;;;;20.30;60.80;;;;;;4974457;28;20001;-85
2022/03/24 13:05:12;;;;;;;;;;;20.50;59.70;;;;;;4974105;28;20370;-81
2022/03/24 13:07:38;;;;;;;;;;;20.70;60.00;;;;;;4974547;28;20237;-82
2022/03/24 13:10:08;;;;;;;;;;;20.80;59.50;;;;;;4974161;28;19917;-81
2022/03/24 13:12:34;;;;;;;;;;;20.90;60.10;;;;;;4975640;28;20052;-82
2022/03/24 13:15:00;;;;;;;;;;;21.10;61.10;;;;;;4974444;28;20227;-82
2022/03/24 13:17:27;;;;;;;;;;;21.30;60.90;;;;;;4973484;28;19910;-82
2022/03/24 13:19:52;;;;;;;;;;;21.40;61.10;;;;;;4973732;28;20004;-82
2022/03/24 13:22:22;;;;;;;;;;;21.50;59.70;;;;;;4973572;28;19952;-82
2022/03/24 13:24:59;;;;;;;;;;;21.60;59.00;;;;;;4974096;28;19965;-82
2022/03/24 13:27:26;;;;;;;;;;;21.60;59.30;;;;;;4973555;28;20438;-83
2022/03/24 13:29:51;;;;;;;;;;;21.70;59.00;;;;;;4973783;28;19917;-83
2022/03/24 13:32:19;;;;;;;;;;;21.80;60.70;;;;;;4974109;28;19918;-83
2022/03/24 13:34:47;;;;;;;;;;;21.80;59.70;;;;;;4974621;28;19933;-83
2022/03/24 13:37:14;;;;;;;;;;;22.00;59.30;;;;;;4973777;28;19910;-83
2022/03/24 13:39:44;;;;;;;;;;;22.10;59.50;;;;;;4974063;28;19914;-83
2022/03/24 13:42:10;;;;;;;;;;;22.20;60.00;;;;;;4973949;28;19918;-84
2022/03/24 13:44:37;;;;;;;;;;;22.30;60.00;;;;;;4978461;28;19906;-84
2022/03/24 13:47:03;;;;;;;;;;;22.20;59.90;;;;;;4976300;28;19953;-84
2022/03/24 13:49:29;;;;;;;;;;;22.40;59.10;;;;;;4976826;28;19953;-84
2022/03/24 13:51:54;;;;;;;;;;;22.50;59.20;;;;;;4977125;28;19906;-84
2022/03/24 13:54:20;;;;;;;;;;;22.60;59.00;;;;;;4977339;28;19914;-84
2022/03/24 13:56:49;;;;;;;;;;;22.50;59.70;;;;;;4956883;28;19914;-84
2022/03/24 13:59:15;;;;;;;;;;;22.60;59.20;;;;;;4974854;28;19910;-84
2022/03/24 14:01:40;;;;;;;;;;;22.50;57.70;;;;;;4957685;28;19918;-84
2022/03/24 14:04:18;;;;;;;;;;;22.70;59.30;;;;;;4974213;28;20301;-84
2022/03/24 14:07:05;;;;;;;;;;;23.00;57.70;;;;;;4972805;28;19937;-84
2022/03/24 14:09:31;;;;;;;;;;;23.10;56.40;;;;;;4972148;28;19910;-84
2022/03/24 14:12:04;;;;;;;;;;;23.30;57.00;;;;;;4975572;28;19921;-84
2022/03/24 14:14:30;;;;;;;;;;;23.40;56.90;;;;;;4974241;28;20260;-84
2022/03/24 14:16:55;;;;;;;;;;;23.60;55.70;;;;;;4977848;28;19906;-84
2022/03/24 14:19:26;;;;;;;;;;;23.60;53.10;;;;;;4977406;28;20021;-84
2022/03/24 14:22:05;;;;;;;;;;;23.80;54.10;;;;;;4976471;28;20056;-84
2022/03/24 14:24:31;;;;;;;;;;;23.90;55.20;;;;;;4957419;28;19949;-84
2022/03/24 14:26:56;;;;;;;;;;;23.80;54.60;;;;;;4978243;28;20256;-84
2022/03/24 14:29:22;;;;;;;;;;;24.00;54.10;;;;;;4976708;28;19917;-84
2022/03/24 14:31:48;;;;;;;;;;;24.50;54.70;;;;;;4955181;28;20102;-84
2022/03/24 14:34:14;;;;;;;;;;;24.90;54.00;;;;;;4977935;28;19914;-84
2022/03/24 14:36:46;;;;;;;;;;;24.90;53.00;;;;;;4977407;28;19965;-84
2022/03/24 14:39:21;;;;;;;;;;;25.30;52.40;;;;;;4974167;28;20372;-83
2022/03/24 14:41:48;;;;;;;;;;;25.80;52.40;;;;;;4971186;28;19910;-84
2022/03/24 14:44:15;;;;;;;;;;;26.20;52.80;;;;;;4971957;28;19916;-84
2022/03/24 14:46:41;;;;;;;;;;;26.90;50.50;;;;;;4971138;28;20017;-84
2022/03/24 14:49:07;;;;;;;;;;;27.40;50.60;;;;;;4974687;28;19922;-85
2022/03/24 14:51:33;;;;;;;;;;;28.20;49.90;;;;;;4974534;28;19910;-85
2022/03/24 14:53:59;;;;;;;;;;;29.40;47.60;;;;;;4955201;28;19922;-84
2022/03/24 14:56:25;;;;;;;;;;;30.40;48.40;;;;;;4972790;28;20016;-84
2022/03/24 14:58:52;;;;;;;;;;;31.50;47.30;;;;;;4955112;28;20438;-85
2022/03/24 15:01:18;;;;;;;;;;;33.20;46.50;;;;;;4971875;28;19910;-84
2022/03/24 15:03:44;;;;;;;;;;;34.10;45.60;;;;;;4972970;28;20110;-84
2022/03/24 15:06:09;;;;;;;;;;;35.20;44.00;;;;;;4971785;28;20097;-84
2022/03/24 15:08:35;;;;;;;;;;;35.90;42.50;;;;;;4955675;28;19919;-84
2022/03/24 15:11:01;;;;;;;;;;;36.90;41.30;;;;;;4972191;28;19910;-83
2022/03/24 15:13:26;;;;;;;;;;;37.90;41.60;;;;;;4971114;28;19969;-83
2022/03/24 15:16:05;;;;;;;;;;;38.80;39.80;;;;;;4972056;28;19914;-83
2022/03/24 15:18:33;;;;;;;;;;;39.40;39.30;;;;;;4971352;28;20276;-84
2022/03/24 15:20:59;;;;;;;;;;;39.40;38.70;;;;;;4954046;28;20381;-84
2022/03/24 15:23:25;;;;;;;;;;;39.30;38.30;;;;;;4971365;28;20635;-83
2022/03/24 15:25:51;;;;;;;;;;;39.60;36.00;;;;;;4970971;28;20386;-84
2022/03/24 15:28:17;;;;;;;;;;;39.90;36.20;;;;;;4971604;28;19910;-85
2022/03/24 15:30:43;;;;;;;;;;;40.50;36.40;;;;;;4971315;28;20058;-84
2022/03/24 15:33:09;;;;;;;;;;;39.40;36.50;;;;;;4972808;28;20119;-83
2022/03/24 15:35:35;;;;;;;;;;;37.00;36.00;;;;;;4972363;28;19911;-83
2022/03/24 15:38:00;;;;;;;;;;;37.20;37.40;;;;;;4970720;28;19917;-84
2022/03/24 15:40:27;;;;;;;;;;;37.80;37.50;;;;;;4972988;28;19918;-83
2022/03/24 15:42:53;;;;;;;;;;;39.20;36.70;;;;;;4971471;28;19910;-82
2022/03/24 15:45:19;;;;;;;;;;;38.70;36.70;;;;;;4971572;28;20415;-90
2022/03/24 15:47:44;;;;;;;;;;;37.70;37.20;;;;;;4973206;28;20310;-84
2022/03/24 15:50:12;;;;;;;;;;;34.90;42.10;;;;;;4971705;28;20001;-84
2022/03/24 15:52:39;;;;;;;;;;;33.70;42.00;;;;;;4973590;28;19922;-84
2022/03/24 15:55:05;;;;;;;;;;;34.30;43.30;;;;;;4971564;28;19917;-84
2022/03/24 15:57:31;;;;;;;;;;;35.30;39.90;;;;;;4971260;28;20111;-84